• Join FlightAware (Why Join?)
  • Login
  • US Flag 
01:43PM EDT


 

Airport Tracker/Info


-or-


 

Live Flight TrackerFlight Track Log ✈ DAL695 ✈ 08-Jun-2013 ✈ KMCO - KJFK

Flight Track Log - Related Links

Times and Time Zones

All times are in EDT time to prevent confusion due to time zone crossing. See the DAL695 flight status page for this flight to view local times or setup timezone preferences in your user account.

Time Position Orientation Groundspeed Altitude Reporting Facility
EDT Latitude Longitude Course Direction KTS MPH feet Rate Location/Type
02:55PM 28.4000 -81.3000 North 171 197 700  Level Orlando TRACON
02:56PM 28.3833 -81.3000 180° South 167 192 1,500 1,500 Climbing Orlando TRACON
02:57PM 28.3333 -81.2833 164° South 241 277 2,700 2,100 Climbing Orlando TRACON
02:58PM 28.7785 -81.3500 North  Level FlightAware Approximate
02:58PM 28.3167 -81.2000 103° East 239 275 5,800  Level Orlando TRACON
02:59PM 28.9021 -81.3569 355° North  Level FlightAware Approximate
03:00PM 29.0252 -81.3717 350° North  Level FlightAware Approximate
03:00PM 28.4678 -81.1403 19° North 248 285 11,700  Level Jacksonville Center
03:01PM 29.1482 -81.3833 North  Level FlightAware Approximate
03:01PM 28.5408 -81.1508 353° North 253 291 13,400  Level Jacksonville Center
03:02PM 28.6289 -81.1872 340° North 289 333 14,300 1,020 Climbing Jacksonville Center
03:03PM 28.7194 -81.2472 330° Northwest 359 413 15,500 1,380 Climbing Jacksonville Center
03:04PM 28.8183 -81.3050 333° Northwest 373 429 17,100 1,500 Climbing Jacksonville Center
03:05PM 28.9314 -81.3411 344° North 393 452 18,600 1,500 Climbing Jacksonville Center
03:06PM 29.0489 -81.3747 346° North 427 491 20,100 1,380 Climbing Jacksonville Center
03:07PM 29.1700 -81.3944 352° North 435 501 21,400 1,320 Climbing Jacksonville Center
03:08PM 29.2956 -81.4139 352° North 454 522 22,800 1,260 Climbing Jacksonville Center
03:09PM 29.4106 -81.4217 357° North 461 531 24,000 1,140 Climbing Jacksonville Center
03:10PM 29.5422 -81.4364 354° North 466 536 25,100 1,380 Climbing Jacksonville Center
03:11PM 29.6717 -81.4489 355° North 466 536 26,800 960 Climbing Jacksonville Center
03:12PM 29.8056 -81.4589 356° North 466 536 27,100 420 Climbing Jacksonville Center
03:13PM 29.9414 -81.4736 355° North 473 544 27,700 600 Climbing Jacksonville Center
03:14PM 30.0856 -81.4858 356° North 494 568 28,300 960 Climbing Jacksonville Center
03:15PM 30.2233 -81.4983 356° North 501 577 29,700 1,200 Climbing Jacksonville Center
03:16PM 30.3800 -81.5081 357° North 501 577 30,700 600 Climbing Jacksonville Center
03:17PM 30.5197 -81.4939 North 496 571 31,000 120 Climbing Jacksonville Center
03:18PM 30.6575 -81.4847 North 496 571 31,000  Level Jacksonville Center
03:19PM 30.7972 -81.4731 North 496 571 31,100 360 Climbing Jacksonville Center
03:20PM 30.9325 -81.4250 17° North 496 571 31,800 900 Climbing Jacksonville Center
03:21PM 31.0525 -81.3431 30° Northeast 488 562 33,000 900 Climbing Jacksonville Center
03:22PM 31.1747 -81.2583 31° Northeast 500 575 33,600 540 Climbing Jacksonville Center
03:23PM 31.2947 -81.1761 30° Northeast 506 582 34,100 540 Climbing Jacksonville Center
03:24PM 31.4167 -81.0864 32° Northeast 511 588 34,700 540 Climbing Jacksonville Center
03:25PM 31.5283 -81.0086 31° Northeast 513 590 35,200 540 Climbing Jacksonville Center
03:26PM 31.6647 -80.9131 31° Northeast 513 590 35,800 540 Climbing Jacksonville Center
03:27PM 31.7906 -80.8247 31° Northeast 513 590 36,300 540 Climbing Jacksonville Center
03:28PM 31.9019 -80.7464 31° Northeast 513 590 36,900 300 Climbing Jacksonville Center
03:29PM 32.0381 -80.6525 30° Northeast 513 590 37,000  Climbing Jacksonville Center
03:30PM 32.1597 -80.5636 32° Northeast 513 590 37,000  Level Jacksonville Center
03:31PM 32.2856 -80.4744 31° Northeast 513 590 37,000  Level Jacksonville Center
03:32PM 32.4069 -80.3875 31° Northeast 507 583 37,000  Level Jacksonville Center
03:33PM 32.5303 -80.3006 31° Northeast 507 583 37,000 -60 Level Jacksonville Center
03:34PM 32.6539 -80.2106 32° Northeast 507 583 36,900 -60 Descending Jacksonville Center
03:35PM 32.7769 -80.1203 32° Northeast 507 583 36,900  Level Jacksonville Center
03:36PM 32.9003 -80.0275 32° Northeast 507 583 37,000  Climbing Jacksonville Center
03:37PM 33.0167 -79.9175 38° Northeast 522 601 37,000  Level Jacksonville Center
03:38PM 33.1289 -79.8094 39° Northeast 522 601 37,000  Level Jacksonville Center
03:39PM 33.2328 -79.7089 39° Northeast 531 611 37,000  Level Jacksonville Center
03:40PM 33.3428 -79.6031 39° Northeast 520 598 37,000  Level Jacksonville Center
03:41PM 33.4528 -79.4969 39° Northeast 510 587 37,000 -60 Level Jacksonville Center
03:42PM 33.5625 -79.3881 40° Northeast 510 587 36,900 -60 Descending Jacksonville Center
03:43PM 33.6700 -79.2792 40° Northeast 510 587 36,900  Level Jacksonville Center
03:44PM 33.7733 -79.1775 39° Northeast 500 575 36,900  Level Jacksonville Center
03:45PM 33.8828 -79.0703 39° Northeast 500 575 36,900  Level Jacksonville Center
03:47PM 34.1108 -78.8450 39° Northeast 523 602 36,900  Level Washington Center
03:48PM 34.2222 -78.7389 38° Northeast 513 590 37,000  Climbing Washington Center
03:49PM 34.3336 -78.6275 40° Northeast 513 590 37,000 -60 Level Washington Center
03:50PM 34.4428 -78.5158 40° Northeast 513 590 36,900  Descending Washington Center
03:51PM 34.5519 -78.3986 41° Northeast 513 590 37,000  Climbing Washington Center
03:52PM 34.6650 -78.2914 38° Northeast 518 596 37,000  Level Washington Center
03:53PM 34.7761 -78.1786 40° Northeast 513 590 37,000  Level Washington Center
03:54PM 34.8742 -78.0731 41° Northeast 518 596 37,000  Level Washington Center
03:55PM 34.9831 -77.9597 40° Northeast 518 596 37,000  Level Washington Center
03:56PM 35.0897 -77.8386 43° Northeast 518 596 37,000  Level Washington Center
03:57PM 35.1961 -77.7219 42° Northeast 518 596 37,000  Level Washington Center
03:58PM 35.3025 -77.6078 41° Northeast 507 583 37,000  Level Washington Center
03:59PM 35.4106 -77.4958 40° Northeast 502 578 37,000  Level Washington Center
04:00PM 35.5331 -77.4042 31° Northeast 507 583 37,000  Level Washington Center
04:01PM 35.6553 -77.3175 30° Northeast 507 583 37,000  Level Washington Center
04:02PM 35.7797 -77.2256 31° Northeast 507 583 37,000  Level Washington Center
04:03PM 35.9019 -77.1331 32° Northeast 512 589 37,000  Level Washington Center
04:04PM 36.0328 -77.0331 32° Northeast 512 589 37,000  Level Washington Center
04:05PM 36.1547 -76.9400 32° Northeast 512 589 37,000  Level Washington Center
04:06PM 36.2789 -76.8494 30° Northeast 512 589 37,000  Level Washington Center
04:07PM 36.4028 -76.7533 32° Northeast 512 589 37,000  Level Washington Center
04:08PM 36.5269 -76.6619 31° Northeast 517 595 37,000 -60 Level Washington Center
04:09PM 36.6464 -76.5706 32° Northeast 517 595 36,900  Descending Washington Center
04:10PM 36.7683 -76.4736 32° Northeast 517 595 37,000  Climbing Washington Center
04:11PM 36.8919 -76.3789 31° Northeast 522 601 37,000  Level Washington Center
04:12PM 37.0031 -76.2914 32° Northeast 522 601 37,000  Level Washington Center
04:13PM 37.1289 -76.1936 32° Northeast 522 601 37,000  Level Washington Center
04:14PM 37.2567 -76.0747 37° Northeast 522 601 37,000  Level Washington Center
04:15PM 37.3197 -75.9289 61° Northeast 511 588 37,000  Level Washington Center
04:16PM 37.3742 -75.7539 69° East 516 594 37,000 -60 Level Washington Center
04:17PM 37.4536 -75.5969 57° Northeast 521 600 36,900 -60 Descending Washington Center
04:18PM 37.5850 -75.5317 21° North 490 564 36,900 -360 Level Washington Center
04:19PM 37.7206 -75.5106 North 473 544 36,200 -900 Descending Washington Center
04:20PM 37.8622 -75.4972 North 480 552 35,200 -600 Descending Washington Center
04:21PM 38.0061 -75.4706 North 500 575 35,000 -120 Descending Washington Center
04:22PM 38.1481 -75.4147 17° North 519 597 35,000 -60 Level Washington Center
04:23PM 38.2856 -75.3272 27° Northeast 527 606 34,900 -60 Descending Washington Center
04:24PM 38.4167 -75.2367 28° Northeast 532 612 34,900  Level Washington Center
04:25PM 38.5475 -75.1536 26° Northeast 532 612 34,900  Level Washington Center
04:26PM 38.6828 -75.0703 26° Northeast 527 606 34,900  Level Washington Center
04:27PM 38.8158 -74.9817 27° Northeast 527 606 35,000 -780 Climbing Washington Center
04:28PM 38.9550 -74.8922 27° Northeast 527 606 33,400 -2,400 Descending Washington Center
04:29PM 39.0878 -74.8028 28° Northeast 532 612 30,200 -2,940 Descending Washington Center
04:31PM 39.3253 -74.5550 39° Northeast 551 634 24,900 -2,640 Descending New York Center
04:32PM 39.4333 -74.4372 40° Northeast 526 605 22,600 -2,400 Descending New York Center
04:33PM 39.5347 -74.3239 41° Northeast 496 571 20,100 -2,220 Descending New York Center
04:34PM 39.6253 -74.2261 40° Northeast 475 547 18,200 -1,440 Descending New York Center
04:35PM 39.7308 -74.1097 40° Northeast 456 525 17,300 -1,800 Descending New York Center
04:36PM 39.8233 -74.0089 40° Northeast 436 502 14,600 -2,580 Descending New York Center
04:37PM 39.9211 -73.9322 31° Northeast 420 483 12,100 -1,740 Descending New York Center
04:38PM 40.0061 -73.8736 28° Northeast 395 455 11,100 -720 Descending New York Center
04:39PM 40.0911 -73.8097 30° Northeast 352 405 10,700 -840 Descending New York Center
04:39PM 40.1333 -73.7667 38° Northeast 337 388 9,900 -1,440 Descending New York TRACON
04:40PM 40.2167 -73.7000 31° Northeast 311 358 8,600 -1,440 Descending New York TRACON
04:41PM 40.2833 -73.6500 30° Northeast 298 343 7,100 -840 Descending New York TRACON
04:42PM 40.3500 -73.6833 339° North 281 323 7,000 -60 Descending New York TRACON
04:43PM 40.4167 -73.6333 30° Northeast 308 354 7,000  Level New York TRACON
04:45PM 40.4833 -73.5500 44° Northeast 306 352 7,000 -300 Level New York TRACON
04:46PM 40.5500 -73.5000 30° Northeast 297 342 6,400 -1,020 Descending New York TRACON
04:47PM 40.6333 -73.4667 17° North 277 319 5,000 -1,200 Descending New York TRACON
04:48PM 40.7000 -73.4500 11° North 237 273 4,100 -660 Descending New York TRACON
04:48PM 40.7333 -73.4833 323° Northwest 217 250 3,800 -600 Descending New York TRACON
04:49PM 40.7833 -73.5500 315° West 216 249 3,000 -840 Descending New York TRACON